createdAt,value
2022-12-16T06:42:30.028Z,18.13
2022-12-16T06:45:34.697Z,17.17
2022-12-16T06:48:26.104Z,17.83
2022-12-16T06:51:14.726Z,18.38
2022-12-16T06:54:03.254Z,18.08
2022-12-16T06:56:51.791Z,18.33
2022-12-16T06:59:40.409Z,19.58
2022-12-16T07:02:32.299Z,18.25
2022-12-16T07:05:20.971Z,18.83
2022-12-16T07:08:11.457Z,19.77
2022-12-16T07:11:15.309Z,19.05
2022-12-16T07:14:05.178Z,18.52
2022-12-16T07:16:53.764Z,18.52
2022-12-16T07:19:42.358Z,18.05
2022-12-16T07:22:30.812Z,17.98
2022-12-16T07:25:20.124Z,18.10
2022-12-16T07:28:15.129Z,18.63
2022-12-16T07:31:05.185Z,16.70
2022-12-16T07:33:53.616Z,18.77
2022-12-16T07:36:42.157Z,18.02
2022-12-16T07:39:30.681Z,17.52
2022-12-16T07:42:19.209Z,18.83
2022-12-16T07:45:07.671Z,17.55
2022-12-16T07:47:56.176Z,17.65
2022-12-16T07:50:44.601Z,17.10
2022-12-16T07:53:33.487Z,18.52
2022-12-16T07:56:22.197Z,16.75
2022-12-16T07:59:10.731Z,18.48
2022-12-16T08:01:59.320Z,19.20
2022-12-16T08:04:48.181Z,18.65
2022-12-16T08:07:39.981Z,19.17
2022-12-16T08:10:28.934Z,19.98
2022-12-16T08:13:26.387Z,18.52
2022-12-16T08:16:19.223Z,18.08
2022-12-16T08:19:11.080Z,18.77
2022-12-16T08:22:00.116Z,16.63
2022-12-16T08:24:53.339Z,17.42
2022-12-16T08:27:42.594Z,18.88
2022-12-16T08:30:31.654Z,18.02
2022-12-16T08:33:20.196Z,18.42
2022-12-16T08:36:14.875Z,18.45
2022-12-16T08:39:03.475Z,17.73
2022-12-16T08:41:54.509Z,19.15
2022-12-16T08:44:43.869Z,17.98
2022-12-16T08:47:32.399Z,17.70
2022-12-16T08:50:21.019Z,19.02
2022-12-16T08:53:09.620Z,16.83
2022-12-16T08:55:58.172Z,17.40
2022-12-16T08:58:46.689Z,17.30
2022-12-16T09:01:35.244Z,16.40
2022-12-16T09:04:24.022Z,15.63
2022-12-16T09:07:12.431Z,16.45
2022-12-16T09:10:00.958Z,17.38
2022-12-16T09:12:49.430Z,17.85
2022-12-16T09:15:38.033Z,16.50
2022-12-16T09:18:26.681Z,15.95
2022-12-16T09:21:15.351Z,16.02
2022-12-16T09:24:04.090Z,17.40
2022-12-16T09:26:52.786Z,16.40
2022-12-16T09:29:45.028Z,17.35
2022-12-16T09:32:33.831Z,18.13
2022-12-16T09:35:22.370Z,16.95
2022-12-16T09:38:11.446Z,18.02
2022-12-16T09:41:01.625Z,16.08
2022-12-16T09:44:16.077Z,18.00
2022-12-16T09:47:24.650Z,16.27
2022-12-16T09:50:14.834Z,16.98
2022-12-16T09:53:11.450Z,18.30
2022-12-16T09:56:03.671Z,18.33
2022-12-16T09:59:00.052Z,16.83
2022-12-16T10:01:57.859Z,17.95
2022-12-16T10:04:47.266Z,17.70
2022-12-16T10:07:40.185Z,18.17
2022-12-16T10:11:04.210Z,16.98
2022-12-16T10:17:01.044Z,18.58
2022-12-16T10:20:10.591Z,18.48
2022-12-16T10:23:08.254Z,64.88
2022-12-16T10:26:23.310Z,18.65
2022-12-16T10:29:24.558Z,19.48
2022-12-16T10:32:12.992Z,19.38
2022-12-16T10:35:02.055Z,21.27
2022-12-16T10:38:00.928Z,20.27
2022-12-16T10:40:54.467Z,20.02
2022-12-16T10:44:00.978Z,19.70
2022-12-16T10:46:54.294Z,19.70
2022-12-16T10:49:44.163Z,19.27
2022-12-16T10:52:34.667Z,20.58
2022-12-16T10:56:02.351Z,19.80
2022-12-16T10:59:07.484Z,19.73
2022-12-16T11:01:56.102Z,20.88
2022-12-16T11:04:56.894Z,20.42
2022-12-16T11:07:49.740Z,21.80
2022-12-16T11:10:56.410Z,23.23
2022-12-16T11:13:49.950Z,23.73
2022-12-16T11:16:43.652Z,24.15
2022-12-16T11:19:49.463Z,23.67
2022-12-16T11:22:40.711Z,24.73
2022-12-16T11:25:38.027Z,27.45
2022-12-16T11:28:32.442Z,25.75
2022-12-16T11:31:26.036Z,25.05
2022-12-16T11:34:16.040Z,24.27
2022-12-16T11:37:08.452Z,22.98
2022-12-16T11:39:59.641Z,23.40
2022-12-16T11:42:53.244Z,25.52
2022-12-16T11:45:42.971Z,23.95
2022-12-16T11:49:06.900Z,26.15
2022-12-16T11:52:20.926Z,26.30
2022-12-16T11:55:16.716Z,27.42
2022-12-16T11:58:17.219Z,28.13
2022-12-16T12:01:19.206Z,26.58
2022-12-16T12:04:10.254Z,28.85
2022-12-16T12:07:11.397Z,28.30
2022-12-16T12:10:07.380Z,25.75
2022-12-16T12:13:22.820Z,27.33
2022-12-16T12:16:26.990Z,28.20
2022-12-16T12:19:26.982Z,28.92
2022-12-16T12:22:23.603Z,28.75
2022-12-16T12:25:39.522Z,28.05
2022-12-16T12:28:29.084Z,28.58
2022-12-16T12:31:34.661Z,28.13
2022-12-16T12:34:37.504Z,27.90
2022-12-16T12:37:33.462Z,35.47
2022-12-16T12:40:43.120Z,36.47
2022-12-16T12:43:46.008Z,32.47
2022-12-16T12:46:59.919Z,33.35
2022-12-16T12:52:57.981Z,34.47
2022-12-16T12:56:02.279Z,33.58
2022-12-16T12:58:54.066Z,34.08
2022-12-16T13:01:49.764Z,36.75
2022-12-16T13:04:42.054Z,35.83
2022-12-16T13:07:31.063Z,36.85
2022-12-16T13:10:36.739Z,36.92
2022-12-16T13:13:49.546Z,36.10
2022-12-16T13:17:01.610Z,36.22
2022-12-16T13:19:54.669Z,37.10
2022-12-16T13:23:04.378Z,38.90
2022-12-16T13:25:59.126Z,37.97
2022-12-16T13:28:50.866Z,35.72
2022-12-16T13:31:40.561Z,38.70
2022-12-16T13:34:44.968Z,39.47
2022-12-16T13:37:45.894Z,37.95
2022-12-16T13:40:49.669Z,37.10
2022-12-16T13:47:06.772Z,35.72
2022-12-16T13:50:01.853Z,35.63
2022-12-16T13:53:14.291Z,39.00
2022-12-16T13:56:04.723Z,38.38
2022-12-16T13:58:58.683Z,38.97
2022-12-16T14:02:04.260Z,39.08
2022-12-16T14:05:02.404Z,39.40
2022-12-16T14:07:55.660Z,38.70
2022-12-16T14:10:57.395Z,38.53
2022-12-16T14:14:06.889Z,39.83
2022-12-16T14:17:19.055Z,39.42
2022-12-16T14:20:22.005Z,38.08
2022-12-16T14:23:55.828Z,42.40
2022-12-16T14:26:42.067Z,40.47
2022-12-16T14:29:43.310Z,40.90
2022-12-16T14:32:53.305Z,42.35
2022-12-16T14:35:45.817Z,42.67
2022-12-16T14:38:51.843Z,44.42
2022-12-16T14:41:44.798Z,43.03
2022-12-16T14:44:44.511Z,41.17
2022-12-16T14:47:41.975Z,40.80
2022-12-16T14:50:47.783Z,40.97
2022-12-16T14:53:39.607Z,40.80
2022-12-16T14:56:36.343Z,41.33
2022-12-16T14:59:41.076Z,40.53
2022-12-16T15:02:48.734Z,41.03
2022-12-16T15:05:40.164Z,41.53
2022-12-16T15:08:33.548Z,39.70
2022-12-16T15:11:24.343Z,39.53
2022-12-16T15:14:19.044Z,41.05
2022-12-16T15:17:10.715Z,39.38
2022-12-16T15:20:07.220Z,39.97
2022-12-16T15:22:57.278Z,39.40
2022-12-16T15:25:47.770Z,40.67
2022-12-16T15:28:56.444Z,39.92
2022-12-16T15:31:51.435Z,38.55
2022-12-16T15:35:08.049Z,39.55
2022-12-16T15:38:04.476Z,41.20
2022-12-16T15:40:55.759Z,39.17
2022-12-16T15:43:57.313Z,39.55
2022-12-16T15:46:49.618Z,40.63
2022-12-16T15:49:40.066Z,40.00
2022-12-16T15:52:46.802Z,42.63
2022-12-16T15:56:02.604Z,42.80
2022-12-16T15:58:55.423Z,42.25
2022-12-16T16:01:47.424Z,42.55
2022-12-16T16:04:51.999Z,42.83
2022-12-16T16:07:43.174Z,40.88
2022-12-16T16:10:41.415Z,42.38
2022-12-16T16:13:30.384Z,43.85
2022-12-16T16:16:19.376Z,43.30
2022-12-16T16:19:07.864Z,44.08
2022-12-16T16:21:56.426Z,43.50
2022-12-16T16:24:44.965Z,44.22
2022-12-16T16:27:35.714Z,44.42
2022-12-16T16:30:24.800Z,43.22
2022-12-16T16:33:13.252Z,44.80
2022-12-16T16:36:01.699Z,43.38
2022-12-16T16:38:50.133Z,44.28
2022-12-16T16:41:38.535Z,47.28
2022-12-16T16:44:27.005Z,46.50
2022-12-16T16:47:15.686Z,45.67
2022-12-16T16:50:07.828Z,46.50
2022-12-16T16:52:56.213Z,44.58
2022-12-16T16:55:45.872Z,44.03
2022-12-16T16:58:41.199Z,43.20
2022-12-16T17:01:40.327Z,43.35
2022-12-16T17:04:28.861Z,44.45
2022-12-16T17:07:17.321Z,43.28
2022-12-16T17:10:05.765Z,45.72
2022-12-16T17:12:54.706Z,43.70
2022-12-16T17:15:50.326Z,44.30
2022-12-16T17:18:43.788Z,42.45
2022-12-16T17:21:34.181Z,45.17
2022-12-16T17:24:22.642Z,41.40
2022-12-16T17:27:11.086Z,40.92
2022-12-16T17:29:59.606Z,39.72
2022-12-16T17:32:48.093Z,42.55
2022-12-16T17:35:36.658Z,39.55
2022-12-16T17:38:24.999Z,39.47
2022-12-16T17:41:14.228Z,39.30
2022-12-16T17:44:02.646Z,39.63
2022-12-16T17:46:51.126Z,38.58
2022-12-16T17:49:41.479Z,39.78
2022-12-16T17:52:30.115Z,40.33
2022-12-16T17:55:18.502Z,37.08
2022-12-16T17:58:07.080Z,39.17
2022-12-16T18:00:56.572Z,37.22
2022-12-16T18:03:45.145Z,36.78
2022-12-16T18:06:33.708Z,35.38
2022-12-16T18:09:22.161Z,33.75
2022-12-16T18:12:10.601Z,35.30
2022-12-16T18:14:59.062Z,35.28
2022-12-16T18:17:47.471Z,33.95
2022-12-16T18:20:36.087Z,34.53
2022-12-16T18:23:24.541Z,33.25
2022-12-16T18:26:22.723Z,33.58
2022-12-16T18:29:11.328Z,32.67
2022-12-16T18:31:59.941Z,31.77
2022-12-16T18:34:48.487Z,33.55
2022-12-16T18:37:37.018Z,32.78
2022-12-16T18:40:25.867Z,33.15
2022-12-16T18:43:14.244Z,32.08
2022-12-16T18:46:02.662Z,33.97
2022-12-16T18:48:51.129Z,33.85
2022-12-16T18:51:39.456Z,32.65
2022-12-16T18:54:28.163Z,33.17
2022-12-16T18:57:16.571Z,31.10
2022-12-16T19:00:05.071Z,30.92
2022-12-16T19:02:53.675Z,30.10
2022-12-16T19:05:42.217Z,34.10
2022-12-16T19:08:30.847Z,29.95
2022-12-16T19:11:20.033Z,32.97
2022-12-16T19:14:11.617Z,31.83
2022-12-16T19:17:00.038Z,32.35
2022-12-16T19:19:48.479Z,33.50
2022-12-16T19:22:36.911Z,32.97
2022-12-16T19:25:25.559Z,32.72
2022-12-16T19:28:14.003Z,32.45
2022-12-16T19:31:02.430Z,30.90
2022-12-16T19:33:50.855Z,31.77
2022-12-16T19:36:46.553Z,31.48
2022-12-16T19:39:35.886Z,32.92
2022-12-16T19:42:24.302Z,31.90
2022-12-16T19:45:12.797Z,32.83
2022-12-16T19:48:01.234Z,32.35
2022-12-16T19:50:49.773Z,31.63
2022-12-16T19:53:38.234Z,32.63
2022-12-16T19:56:26.742Z,32.90
2022-12-16T19:59:15.114Z,33.70
2022-12-16T20:02:03.794Z,33.45
2022-12-16T20:04:52.279Z,32.10
2022-12-16T20:07:44.623Z,33.88
2022-12-16T20:10:32.995Z,31.35
2022-12-16T20:13:26.015Z,32.30
2022-12-16T20:16:32.289Z,31.38
2022-12-16T20:19:21.088Z,31.55
2022-12-16T20:22:13.205Z,32.85
2022-12-16T20:25:04.681Z,30.95
2022-12-16T20:27:53.055Z,31.13
2022-12-16T20:30:41.875Z,31.65
2022-12-16T20:33:35.712Z,30.35
2022-12-16T20:36:25.670Z,28.75
2022-12-16T20:39:14.153Z,30.92
2022-12-16T20:42:02.867Z,27.92
2022-12-16T20:44:51.352Z,29.73
2022-12-16T20:47:40.109Z,29.73
2022-12-16T20:50:28.902Z,28.77
2022-12-16T20:53:17.319Z,27.55
2022-12-16T20:56:05.997Z,27.58
2022-12-16T20:58:56.153Z,27.83
2022-12-16T21:04:53.844Z,28.05
2022-12-16T21:07:43.379Z,30.35
2022-12-16T21:10:31.948Z,29.33
2022-12-16T21:13:28.246Z,27.17
2022-12-16T21:16:18.631Z,28.10
2022-12-16T21:19:06.992Z,27.55
2022-12-16T21:25:03.972Z,26.35
2022-12-16T21:27:52.475Z,26.58
2022-12-16T21:30:41.077Z,26.55
2022-12-16T21:33:40.921Z,26.13
2022-12-16T21:36:29.557Z,27.15
2022-12-16T21:39:17.984Z,26.02
2022-12-16T21:42:06.431Z,27.40
2022-12-16T21:44:56.346Z,28.58
2022-12-16T21:47:44.916Z,26.88
2022-12-16T21:50:33.407Z,25.90
2022-12-16T21:53:21.869Z,26.35
2022-12-16T21:56:14.983Z,25.52
2022-12-16T22:01:53.297Z,24.08
2022-12-16T22:04:44.974Z,25.90
2022-12-16T22:07:33.410Z,25.35
2022-12-16T22:10:21.802Z,25.70
2022-12-16T22:13:10.335Z,26.73
2022-12-16T22:16:02.468Z,26.50
2022-12-16T22:18:51.431Z,26.27
2022-12-16T22:21:40.154Z,27.60
2022-12-16T22:24:28.716Z,29.15
2022-12-16T22:27:17.150Z,29.10
2022-12-16T22:30:05.501Z,27.58
2022-12-16T22:32:53.895Z,28.52
2022-12-16T22:35:45.158Z,27.35
2022-12-16T22:38:33.575Z,28.63
2022-12-16T22:41:22.533Z,29.48
2022-12-16T22:44:10.984Z,30.92
2022-12-16T22:46:59.444Z,32.97
2022-12-16T22:49:47.876Z,29.60
2022-12-16T22:52:36.357Z,30.08
2022-12-16T22:55:24.900Z,30.83
2022-12-16T22:58:13.424Z,28.83
2022-12-16T23:01:01.851Z,27.88
2022-12-16T23:03:52.634Z,28.65
2022-12-16T23:06:42.254Z,28.90
2022-12-16T23:09:30.964Z,28.70
2022-12-16T23:12:19.462Z,32.70
2022-12-16T23:15:07.933Z,31.50
2022-12-16T23:17:56.366Z,31.92
2022-12-16T23:20:44.813Z,31.92
2022-12-16T23:23:34.434Z,31.33
2022-12-16T23:26:24.120Z,32.10
2022-12-16T23:29:13.565Z,32.35
2022-12-16T23:32:02.061Z,43.75
2022-12-16T23:34:50.572Z,37.53
2022-12-16T23:37:39.320Z,33.42
2022-12-16T23:40:28.169Z,36.53
2022-12-16T23:43:17.560Z,37.70
2022-12-16T23:46:06.049Z,35.05
2022-12-16T23:48:54.528Z,34.97
2022-12-16T23:51:43.888Z,36.13
2022-12-16T23:54:32.296Z,35.92
2022-12-16T23:57:20.672Z,34.67
